Time;durP1;ratioP1;P1;durP2;ratioP2;P2;SDS_P1;SDS_P2;PMS_P1;PMS_P2;Temp;Humidity;BMP_temperature;BMP_pressure;BME280_temperature;BME280_humidity;BME280_pressure;Samples;Min_cycle;Max_cycle;Signal;HPM_P1;HPM_P2
2021/05/06 00:14:22;;;;;;;0.70;0.50;;;;;;;;;;5013716;28;20373;-77
2021/05/06 00:33:19;;;;;;;0.73;0.60;;;;;;;;;;5032365;28;20481;-76
2021/05/06 00:35:46;;;;;;;0.80;0.60;;;;;;;;;;5021570;28;20930;-75
2021/05/06 00:38:19;;;;;;;0.80;0.80;;;;;;;;;;5013470;28;20408;-76
2021/05/06 00:41:15;;;;;;;0.70;0.50;;;;;;;;;;5013431;28;20461;-76
2021/05/06 00:44:01;;;;;;;1.30;0.80;;;;;;;;;;5015181;28;20481;-75
2021/05/06 00:46:38;;;;;;;8.23;2.10;;;;;;;;;;5014663;28;20444;-75
2021/05/06 00:54:47;;;;;;;0.70;0.50;;;;;;;;;;5031588;28;20425;-74
2021/05/06 00:57:26;;;;;;;3.20;0.87;;;;;;;;;;5013012;28;20448;-74
2021/05/06 01:10:22;;;;;;;2.23;1.33;;;;;;;;;;5013085;28;20426;-76
2021/05/06 01:12:48;;;;;;;0.70;0.47;;;;;;;;;;5013188;28;20411;-76
2021/05/06 01:15:15;;;;;;;1.23;0.80;;;;;;;;;;5013293;28;20512;-76
2021/05/06 01:17:41;;;;;;;0.70;0.47;;;;;;;;;;5023672;28;20438;-76
2021/05/06 01:20:07;;;;;;;3.90;0.63;;;;;;;;;;5012580;28;20518;-74
2021/05/06 01:22:34;;;;;;;1.43;0.90;;;;;;;;;;5013122;28;20932;-73
2021/05/06 01:25:00;;;;;;;1.20;0.93;;;;;;;;;;5014428;28;20410;-76
2021/05/06 01:30:02;;;;;;;1.67;0.60;;;;;;;;;;5013027;28;20410;-76
2021/05/06 01:32:34;;;;;;;0.90;0.80;;;;;;;;;;5022205;28;20418;-76
2021/05/06 01:35:04;;;;;;;0.90;0.60;;;;;;;;;;5030911;28;20427;-75
2021/05/06 01:37:37;;;;;;;0.80;0.70;;;;;;;;;;5032633;28;20438;-76
2021/05/06 01:40:26;;;;;;;0.90;0.50;;;;;;;;;;5032325;28;20457;-76
2021/05/06 01:42:58;;;;;;;0.70;0.50;;;;;;;;;;5032131;28;20421;-76
2021/05/06 01:45:51;;;;;;;7.17;0.80;;;;;;;;;;5024780;28;20435;-76
2021/05/06 01:59:27;;;;;;;0.70;0.40;;;;;;;;;;5020030;28;20510;-75
2021/05/06 02:01:53;;;;;;;3.20;1.10;;;;;;;;;;5012700;28;20389;-76
2021/05/06 02:04:19;;;;;;;4.20;0.80;;;;;;;;;;5012558;28;20909;-75
2021/05/06 02:06:47;;;;;;;0.70;0.40;;;;;;;;;;5012632;28;20395;-75
2021/05/06 02:09:13;;;;;;;0.70;0.40;;;;;;;;;;5016909;28;20904;-76
2021/05/06 02:11:38;;;;;;;0.70;0.40;;;;;;;;;;5031759;28;20404;-74
2021/05/06 02:14:07;;;;;;;0.80;0.67;;;;;;;;;;5013913;28;20419;-76
2021/05/06 02:16:36;;;;;;;1.00;0.57;;;;;;;;;;5012421;28;20410;-75
2021/05/06 02:19:03;;;;;;;12.23;2.10;;;;;;;;;;5012160;28;20468;-75
2021/05/06 02:21:29;;;;;;;0.83;0.60;;;;;;;;;;5012034;28;20511;-75
2021/05/06 02:23:55;;;;;;;1.70;1.60;;;;;;;;;;5012362;28;20401;-76
2021/05/06 02:26:21;;;;;;;0.80;0.70;;;;;;;;;;5018600;28;20408;-75
2021/05/06 02:28:47;;;;;;;0.80;0.80;;;;;;;;;;5030350;28;20442;-76
2021/05/06 02:31:14;;;;;;;0.70;0.50;;;;;;;;;;5031340;28;20477;-76
2021/05/06 02:33:41;;;;;;;0.70;0.50;;;;;;;;;;5030074;28;20497;-75
2021/05/06 02:36:07;;;;;;;4.77;0.90;;;;;;;;;;5029702;28;20404;-75
2021/05/06 02:38:36;;;;;;;2.77;0.90;;;;;;;;;;5042334;22;20490;-71
2021/05/06 02:41:02;;;;;;;0.70;0.40;;;;;;;;;;5033733;28;20993;-72
2021/05/06 02:43:28;;;;;;;0.70;0.50;;;;;;;;;;5038905;28;20421;-71
2021/05/06 02:45:54;;;;;;;0.70;0.50;;;;;;;;;;5057962;22;20489;-70
2021/05/06 02:48:20;;;;;;;1.30;0.70;;;;;;;;;;5050875;28;20429;-70
2021/05/06 02:50:58;;;;;;;0.70;0.50;;;;;;;;;;5050704;28;20468;-70
2021/05/06 02:53:28;;;;;;;6.67;1.20;;;;;;;;;;5050488;28;20408;-71
2021/05/06 02:56:08;;;;;;;0.70;0.40;;;;;;;;;;5047939;28;20442;-71
2021/05/06 03:04:04;;;;;;;3.20;0.90;;;;;;;;;;5050884;28;20400;-70
2021/05/06 03:06:35;;;;;;;1.00;0.60;;;;;;;;;;5049816;28;20850;-69
2021/05/06 03:09:29;;;;;;;2.40;0.80;;;;;;;;;;5050498;28;20418;-70
2021/05/06 03:25:08;;;;;;;2.53;1.03;;;;;;;;;;5035174;28;20439;-70
2021/05/06 03:27:37;;;;;;;1.17;0.90;;;;;;;;;;5067515;28;20421;-70
2021/05/06 04:14:34;;;;;;;0.80;0.70;;;;;;;;;;5054135;28;20420;-72
2021/05/06 04:37:41;;;;;;;0.80;0.60;;;;;;;;;;5057279;28;20409;-70
2021/05/06 04:50:27;;;;;;;0.80;0.63;;;;;;;;;;5045826;28;20486;-71
2021/05/06 04:55:48;;;;;;;0.77;0.53;;;;;;;;;;5041664;28;20823;-70
2021/05/06 05:06:16;;;;;;;0.70;0.50;;;;;;;;;;5052431;28;20437;-69
2021/05/06 05:08:51;;;;;;;0.73;0.50;;;;;;;;;;5052141;28;20412;-72
2021/05/06 05:11:28;;;;;;;0.70;0.53;;;;;;;;;;5051606;28;20413;-72
2021/05/06 05:24:30;;;;;;;0.70;0.50;;;;;;;;;;5049392;28;20462;-74
2021/05/06 05:26:56;;;;;;;2.00;1.13;;;;;;;;;;5052503;28;20405;-74
2021/05/06 05:29:22;;;;;;;5.03;0.87;;;;;;;;;;5047099;28;20425;-72
2021/05/06 05:31:48;;;;;;;0.87;0.77;;;;;;;;;;5046872;28;20848;-72
2021/05/06 05:34:32;;;;;;;0.70;0.50;;;;;;;;;;5069076;28;20401;-69
2021/05/06 05:36:58;;;;;;;1.03;0.70;;;;;;;;;;5068966;28;20376;-71
2021/05/06 05:39:36;;;;;;;5.97;0.77;;;;;;;;;;5061372;28;20443;-70
2021/05/06 05:55:15;;;;;;;0.70;0.50;;;;;;;;;;5050618;28;20412;-72
2021/05/06 05:57:41;;;;;;;1.67;0.60;;;;;;;;;;5053064;28;20401;-72
2021/05/06 06:00:08;;;;;;;1.37;0.97;;;;;;;;;;5050663;28;20464;-71
2021/05/06 06:02:35;;;;;;;0.80;0.50;;;;;;;;;;5050701;28;20400;-71
2021/05/06 06:05:01;;;;;;;1.00;0.90;;;;;;;;;;5045415;28;20855;-71
2021/05/06 06:07:28;;;;;;;1.20;1.10;;;;;;;;;;5046340;28;20441;-70
2021/05/06 06:09:54;;;;;;;0.70;0.50;;;;;;;;;;5050220;28;20499;-72
2021/05/06 06:12:20;;;;;;;0.83;0.70;;;;;;;;;;5051082;28;20396;-71
2021/05/06 06:17:15;;;;;;;0.70;0.40;;;;;;;;;;5050568;28;20479;-70
2021/05/06 06:19:47;;;;;;;0.70;0.50;;;;;;;;;;5051149;28;20411;-70
2021/05/06 06:22:15;;;;;;;0.70;0.50;;;;;;;;;;5050527;28;20396;-70
2021/05/06 06:24:41;;;;;;;0.70;0.50;;;;;;;;;;5049882;28;20440;-71
2021/05/06 06:27:09;;;;;;;0.70;0.50;;;;;;;;;;5051067;28;20422;-70
2021/05/06 06:29:35;;;;;;;1.10;0.90;;;;;;;;;;5050540;28;20398;-70
2021/05/06 06:32:03;;;;;;;0.70;0.50;;;;;;;;;;5051194;28;20399;-69
2021/05/06 06:34:29;;;;;;;0.80;0.50;;;;;;;;;;5050497;28;20533;-72
2021/05/06 06:36:58;;;;;;;0.93;0.70;;;;;;;;;;5046462;28;20871;-72
2021/05/06 06:39:27;;;;;;;0.87;0.57;;;;;;;;;;5050367;28;20477;-72
2021/05/06 06:41:53;;;;;;;1.07;0.90;;;;;;;;;;5050792;28;20463;-73
2021/05/06 06:44:23;;;;;;;1.00;0.90;;;;;;;;;;5049021;28;20420;-73
2021/05/06 06:47:00;;;;;;;1.07;0.70;;;;;;;;;;5050545;28;20405;-72
2021/05/06 06:49:27;;;;;;;0.70;0.60;;;;;;;;;;5048524;28;20377;-71
2021/05/06 06:51:53;;;;;;;0.90;0.80;;;;;;;;;;5050643;28;20392;-72
2021/05/06 06:54:23;;;;;;;1.20;0.80;;;;;;;;;;5050146;28;20493;-72
2021/05/06 06:56:49;;;;;;;0.80;0.73;;;;;;;;;;5049151;28;20397;-71
2021/05/06 06:59:15;;;;;;;1.07;0.87;;;;;;;;;;5057230;28;20473;-71
2021/05/06 07:01:41;;;;;;;0.80;0.60;;;;;;;;;;5050422;28;20534;-71
2021/05/06 07:04:07;;;;;;;0.80;0.60;;;;;;;;;;5044529;28;20401;-71
2021/05/06 07:06:38;;;;;;;0.80;0.60;;;;;;;;;;5047986;28;20439;-71
2021/05/06 07:09:05;;;;;;;2.73;1.00;;;;;;;;;;5045241;28;20487;-73
2021/05/06 07:11:33;;;;;;;1.00;0.67;;;;;;;;;;5045036;28;20409;-74
2021/05/06 07:13:59;;;;;;;0.80;0.50;;;;;;;;;;5042616;28;20386;-73
2021/05/06 07:16:25;;;;;;;1.13;0.83;;;;;;;;;;5042718;28;20485;-74
2021/05/06 07:18:51;;;;;;;0.80;0.70;;;;;;;;;;5044638;28;20405;-73
2021/05/06 07:21:17;;;;;;;0.80;0.70;;;;;;;;;;5045573;28;20422;-74
2021/05/06 07:23:43;;;;;;;0.70;0.50;;;;;;;;;;5042190;28;20506;-70
2021/05/06 07:26:09;;;;;;;1.20;0.83;;;;;;;;;;5045915;28;20440;-70
2021/05/06 07:28:38;;;;;;;0.80;0.60;;;;;;;;;;5048939;28;20420;-71
2021/05/06 07:31:05;;;;;;;0.80;0.50;;;;;;;;;;5044859;28;20428;-71
2021/05/06 07:33:31;;;;;;;1.10;0.70;;;;;;;;;;5040290;28;21218;-71
2021/05/06 07:35:58;;;;;;;0.80;0.67;;;;;;;;;;5040820;28;20410;-70
2021/05/06 07:38:24;;;;;;;0.80;0.60;;;;;;;;;;5046048;28;20423;-71
2021/05/06 07:40:51;;;;;;;0.80;0.60;;;;;;;;;;5048219;28;20434;-70
2021/05/06 07:43:17;;;;;;;0.80;0.67;;;;;;;;;;5047301;28;20508;-71
2021/05/06 07:45:43;;;;;;;1.20;1.10;;;;;;;;;;5046814;28;20580;-71
2021/05/06 07:48:09;;;;;;;0.70;0.50;;;;;;;;;;5039505;28;20970;-71
2021/05/06 07:50:38;;;;;;;7.90;0.80;;;;;;;;;;5047574;28;20946;-70
2021/05/06 07:55:32;;;;;;;0.73;0.50;;;;;;;;;;5047579;28;20434;-71
2021/05/06 07:57:58;;;;;;;1.23;0.80;;;;;;;;;;5045064;28;20425;-71
2021/05/06 08:00:26;;;;;;;17.60;1.17;;;;;;;;;;5038350;28;20457;-73
2021/05/06 08:02:52;;;;;;;1.10;0.73;;;;;;;;;;5043938;28;20514;-71
2021/05/06 08:05:20;;;;;;;1.30;1.20;;;;;;;;;;5048542;28;20441;-72
2021/05/06 08:07:49;;;;;;;2.60;1.27;;;;;;;;;;5050255;28;20373;-71
2021/05/06 08:10:16;;;;;;;8.23;2.00;;;;;;;;;;5052597;28;20418;-72
2021/05/06 08:12:45;;;;;;;0.80;0.50;;;;;;;;;;5051958;28;20910;-73
2021/05/06 08:15:12;;;;;;;0.70;0.50;;;;;;;;;;5053811;28;20960;-73
2021/05/06 08:17:39;;;;;;;1.03;0.80;;;;;;;;;;5062051;28;20922;-74
2021/05/06 08:20:06;;;;;;;0.90;0.60;;;;;;;;;;5044715;28;20424;-73
2021/05/06 08:22:33;;;;;;;3.23;0.80;;;;;;;;;;5041247;28;20627;-73
2021/05/06 08:25:01;;;;;;;0.80;0.60;;;;;;;;;;5049871;28;21053;-72
2021/05/06 08:27:27;;;;;;;0.83;0.70;;;;;;;;;;5068889;28;20408;-72
2021/05/06 08:29:53;;;;;;;1.50;0.70;;;;;;;;;;5052002;28;20421;-73
2021/05/06 08:32:19;;;;;;;0.80;0.80;;;;;;;;;;5053545;28;20847;-73
2021/05/06 08:34:45;;;;;;;1.23;0.70;;;;;;;;;;5053610;28;20401;-72
2021/05/06 08:37:11;;;;;;;0.80;0.50;;;;;;;;;;5050432;28;20891;-73
2021/05/06 08:39:39;;;;;;;0.80;0.50;;;;;;;;;;5049064;28;20415;-72
2021/05/06 08:42:05;;;;;;;0.70;0.40;;;;;;;;;;5047954;28;20926;-72
2021/05/06 08:44:34;;;;;;;1.73;0.73;;;;;;;;;;5051605;28;20914;-72
2021/05/06 08:47:04;;;;;;;1.00;0.90;;;;;;;;;;5046246;28;20417;-72
2021/05/06 08:49:31;;;;;;;0.90;0.50;;;;;;;;;;5040132;28;20386;-73
2021/05/06 08:51:58;;;;;;;0.90;0.50;;;;;;;;;;5052705;22;20466;-71
2021/05/06 08:54:24;;;;;;;0.80;0.60;;;;;;;;;;5023295;28;20386;-70
2021/05/06 08:56:50;;;;;;;0.70;0.50;;;;;;;;;;5014461;28;20953;-71
2021/05/06 08:59:16;;;;;;;5.83;0.90;;;;;;;;;;5028257;28;20427;-72
2021/05/06 09:01:42;;;;;;;1.80;1.70;;;;;;;;;;5020899;28;20459;-69
2021/05/06 09:04:08;;;;;;;0.83;0.80;;;;;;;;;;5022230;28;20917;-71
2021/05/06 09:06:34;;;;;;;0.70;0.40;;;;;;;;;;5021522;28;20388;-71
2021/05/06 09:09:03;;;;;;;1.20;0.73;;;;;;;;;;5031904;28;20401;-72
2021/05/06 09:11:34;;;;;;;0.90;0.60;;;;;;;;;;5032477;28;20741;-71
2021/05/06 09:14:03;;;;;;;0.80;0.60;;;;;;;;;;5016665;28;20403;-72
2021/05/06 09:16:35;;;;;;;0.87;0.60;;;;;;;;;;5012566;28;20832;-72
2021/05/06 09:19:08;;;;;;;0.87;0.50;;;;;;;;;;4992703;28;20404;-71
2021/05/06 09:21:36;;;;;;;0.80;0.60;;;;;;;;;;4992851;28;20531;-73
2021/05/06 09:24:05;;;;;;;0.80;0.50;;;;;;;;;;4999467;28;20796;-71
2021/05/06 09:26:31;;;;;;;0.80;0.60;;;;;;;;;;5011857;28;20389;-72
2021/05/06 09:28:57;;;;;;;0.90;0.73;;;;;;;;;;5012230;28;20446;-73
2021/05/06 09:31:24;;;;;;;1.30;1.20;;;;;;;;;;5018397;28;20423;-72
2021/05/06 09:33:52;;;;;;;4.03;1.00;;;;;;;;;;5011782;28;20790;-72
2021/05/06 09:36:19;;;;;;;0.90;0.53;;;;;;;;;;5011543;28;20471;-71
2021/05/06 09:38:49;;;;;;;0.70;0.50;;;;;;;;;;5014252;28;20432;-73
2021/05/06 09:41:21;;;;;;;0.70;0.50;;;;;;;;;;5011751;28;20469;-71
2021/05/06 09:43:48;;;;;;;0.97;0.80;;;;;;;;;;5012358;28;20425;-72
2021/05/06 09:46:23;;;;;;;1.63;0.73;;;;;;;;;;5028751;28;20745;-71
2021/05/06 09:48:56;;;;;;;5.30;1.77;;;;;;;;;;5008165;28;20428;-70
2021/05/06 09:51:29;;;;;;;5.13;1.60;;;;;;;;;;4998892;28;20407;-73
2021/05/06 09:53:56;;;;;;;0.77;0.60;;;;;;;;;;5001552;28;20930;-72
2021/05/06 09:56:24;;;;;;;0.90;0.70;;;;;;;;;;5012144;28;20771;-71
2021/05/06 09:58:50;;;;;;;0.97;0.80;;;;;;;;;;5016929;28;20439;-70
2021/05/06 10:01:16;;;;;;;0.80;0.70;;;;;;;;;;5011668;28;20909;-74
2021/05/06 10:03:44;;;;;;;0.97;0.87;;;;;;;;;;5011560;28;20933;-71
2021/05/06 10:06:11;;;;;;;0.80;0.73;;;;;;;;;;5010789;28;20445;-71
2021/05/06 10:08:38;;;;;;;0.70;0.60;;;;;;;;;;5011366;28;20438;-73
2021/05/06 10:11:12;;;;;;;1.30;0.80;;;;;;;;;;5011102;28;20400;-72
2021/05/06 10:13:44;;;;;;;0.80;0.70;;;;;;;;;;5010263;28;20516;-74
2021/05/06 10:16:11;;;;;;;1.23;0.70;;;;;;;;;;5011096;28;20399;-71
2021/05/06 10:18:42;;;;;;;1.47;1.07;;;;;;;;;;5011426;28;20419;-72
2021/05/06 10:21:12;;;;;;;1.10;0.80;;;;;;;;;;5010089;28;21026;-71
2021/05/06 10:23:40;;;;;;;0.90;0.80;;;;;;;;;;5011449;28;20421;-72
2021/05/06 10:26:06;;;;;;;0.80;0.57;;;;;;;;;;5018414;28;20939;-72
2021/05/06 10:28:33;;;;;;;3.73;0.77;;;;;;;;;;5017308;28;20519;-71
2021/05/06 10:31:03;;;;;;;0.70;0.50;;;;;;;;;;5021220;28;20415;-72
2021/05/06 10:33:29;;;;;;;0.70;0.50;;;;;;;;;;5019958;28;20410;-72
2021/05/06 10:35:57;;;;;;;0.70;0.50;;;;;;;;;;5022264;28;20787;-72
2021/05/06 10:38:23;;;;;;;0.70;0.40;;;;;;;;;;5028151;28;20817;-72
2021/05/06 10:40:50;;;;;;;0.70;0.50;;;;;;;;;;5010583;28;20426;-71
2021/05/06 10:43:19;;;;;;;2.23;0.63;;;;;;;;;;5011759;28;20521;-70
2021/05/06 10:46:01;;;;;;;0.70;0.47;;;;;;;;;;5010924;28;20404;-71
2021/05/06 10:48:54;;;;;;;2.93;0.67;;;;;;;;;;5008028;28;20499;-72
2021/05/06 10:51:28;;;;;;;0.93;0.70;;;;;;;;;;5004615;28;20472;-71
2021/05/06 10:53:55;;;;;;;0.80;0.70;;;;;;;;;;5008246;28;20429;-76
2021/05/06 10:56:22;;;;;;;0.80;0.60;;;;;;;;;;5009626;28;20428;-72
2021/05/06 10:58:48;;;;;;;0.80;0.50;;;;;;;;;;5009697;28;21000;-72
2021/05/06 11:01:14;;;;;;;1.27;0.90;;;;;;;;;;5007158;28;20616;-72
2021/05/06 11:03:40;;;;;;;0.80;0.60;;;;;;;;;;5009518;28;20388;-71
2021/05/06 11:06:07;;;;;;;0.90;0.60;;;;;;;;;;5008776;28;20391;-70
2021/05/06 11:08:35;;;;;;;0.80;0.53;;;;;;;;;;5009565;28;21078;-71
2021/05/06 11:11:01;;;;;;;1.17;0.80;;;;;;;;;;5009393;28;20449;-71
2021/05/06 11:13:29;;;;;;;0.80;0.70;;;;;;;;;;5017861;28;20802;-72
2021/05/06 11:16:21;;;;;;;0.80;0.60;;;;;;;;;;5017403;28;20755;-71
2021/05/06 11:18:50;;;;;;;1.00;0.70;;;;;;;;;;5007589;28;20451;-72
2021/05/06 11:21:33;;;;;;;1.10;0.60;;;;;;;;;;5008122;28;20456;-73
2021/05/06 11:24:19;;;;;;;0.80;0.50;;;;;;;;;;5009400;28;20375;-73
2021/05/06 11:27:02;;;;;;;0.80;0.57;;;;;;;;;;5006067;28;20401;-73
2021/05/06 11:29:28;;;;;;;0.80;0.70;;;;;;;;;;5003346;28;20427;-73
2021/05/06 11:31:54;;;;;;;1.13;0.67;;;;;;;;;;4999768;28;20413;-74
2021/05/06 11:34:30;;;;;;;1.13;0.70;;;;;;;;;;5006767;28;20399;-72
2021/05/06 11:37:12;;;;;;;1.17;0.60;;;;;;;;;;5014086;28;20407;-74
2021/05/06 11:39:48;;;;;;;0.80;0.60;;;;;;;;;;5013665;28;20437;-74
2021/05/06 11:42:14;;;;;;;1.50;0.63;;;;;;;;;;5014668;28;20525;-74
2021/05/06 11:44:40;;;;;;;1.43;0.60;;;;;;;;;;5011422;28;20894;-75
2021/05/06 11:47:06;;;;;;;0.80;0.60;;;;;;;;;;5010954;28;20457;-74
2021/05/06 11:49:32;;;;;;;0.80;0.60;;;;;;;;;;5010831;28;20502;-73
2021/05/06 11:51:58;;;;;;;0.80;0.60;;;;;;;;;;5017431;28;20499;-74
2021/05/06 11:54:27;;;;;;;0.70;0.50;;;;;;;;;;5014975;28;20427;-73
2021/05/06 11:57:02;;;;;;;0.80;0.60;;;;;;;;;;5015238;28;20486;-74
2021/05/06 11:59:29;;;;;;;0.80;0.60;;;;;;;;;;5017580;28;20446;-73
2021/05/06 12:01:57;;;;;;;0.80;0.60;;;;;;;;;;5017301;28;20452;-76
2021/05/06 12:04:23;;;;;;;0.70;0.50;;;;;;;;;;5029123;28;20862;-74
2021/05/06 12:06:49;;;;;;;1.83;1.23;;;;;;;;;;5014662;28;20496;-74
2021/05/06 12:09:21;;;;;;;0.87;0.60;;;;;;;;;;5022063;28;20583;-74
2021/05/06 12:11:47;;;;;;;2.03;0.90;;;;;;;;;;5027651;28;20888;-74
2021/05/06 12:14:14;;;;;;;1.17;0.73;;;;;;;;;;5013921;28;20412;-74
2021/05/06 12:16:40;;;;;;;4.10;1.63;;;;;;;;;;5012890;28;20396;-73
2021/05/06 12:19:10;;;;;;;0.80;0.67;;;;;;;;;;5011620;28;20444;-74
2021/05/06 12:21:38;;;;;;;1.63;0.70;;;;;;;;;;5019023;28;20458;-74
2021/05/06 12:24:04;;;;;;;0.90;0.70;;;;;;;;;;5021177;28;20444;-72
2021/05/06 12:26:31;;;;;;;1.10;0.80;;;;;;;;;;5019675;28;20380;-74
2021/05/06 12:28:57;;;;;;;0.70;0.50;;;;;;;;;;5022436;28;20505;-75
2021/05/06 12:31:24;;;;;;;0.70;0.50;;;;;;;;;;5011760;28;20935;-74
2021/05/06 12:33:50;;;;;;;0.80;0.50;;;;;;;;;;5012580;28;20409;-74
2021/05/06 12:36:17;;;;;;;0.80;0.60;;;;;;;;;;5012244;28;20410;-74
2021/05/06 12:38:43;;;;;;;0.90;0.67;;;;;;;;;;5012293;28;20769;-74
2021/05/06 12:41:10;;;;;;;1.00;0.90;;;;;;;;;;5011540;28;20978;-73
2021/05/06 12:43:44;;;;;;;0.83;0.70;;;;;;;;;;5014781;28;20431;-73
2021/05/06 12:46:11;;;;;;;2.03;1.37;;;;;;;;;;5019941;28;20382;-73
2021/05/06 12:48:40;;;;;;;0.80;0.50;;;;;;;;;;5022978;28;20429;-73
2021/05/06 12:51:06;;;;;;;0.80;0.60;;;;;;;;;;5024875;28;20891;-75
2021/05/06 12:53:32;;;;;;;1.20;0.70;;;;;;;;;;5026035;28;20422;-74
2021/05/06 12:55:59;;;;;;;0.80;0.63;;;;;;;;;;5016140;28;20415;-73
2021/05/06 12:58:43;;;;;;;0.70;0.57;;;;;;;;;;5025202;28;20443;-75
2021/05/06 13:01:12;;;;;;;1.37;0.77;;;;;;;;;;5014552;28;20431;-75
2021/05/06 13:03:42;;;;;;;0.80;0.70;;;;;;;;;;5024936;28;20410;-76
2021/05/06 13:06:09;;;;;;;0.70;0.50;;;;;;;;;;5027036;28;20374;-74
2021/05/06 13:08:36;;;;;;;1.73;1.00;;;;;;;;;;5012647;28;20415;-74
2021/05/06 13:11:03;;;;;;;0.70;0.50;;;;;;;;;;5010317;28;21094;-73
2021/05/06 13:13:39;;;;;;;0.70;0.50;;;;;;;;;;5010448;28;20410;-74
2021/05/06 13:16:06;;;;;;;1.27;0.70;;;;;;;;;;5017635;28;20428;-73
2021/05/06 13:18:32;;;;;;;1.07;0.63;;;;;;;;;;5010249;28;20426;-73
2021/05/06 13:20:58;;;;;;;0.70;0.50;;;;;;;;;;5014083;28;20427;-74
2021/05/06 13:23:26;;;;;;;0.90;0.60;;;;;;;;;;5015806;28;20427;-75
2021/05/06 13:25:56;;;;;;;1.00;0.70;;;;;;;;;;5009277;28;20387;-70
2021/05/06 13:28:34;;;;;;;0.70;0.50;;;;;;;;;;5009657;28;20498;-70
2021/05/06 13:31:11;;;;;;;4.50;1.00;;;;;;;;;;5009503;28;20438;-69
2021/05/06 13:33:39;;;;;;;0.80;0.60;;;;;;;;;;5009800;28;20427;-69
2021/05/06 13:36:05;;;;;;;2.90;2.63;;;;;;;;;;5015488;28;20453;-70
2021/05/06 13:38:49;;;;;;;0.90;0.70;;;;;;;;;;5023505;28;20706;-70
2021/05/06 13:41:16;;;;;;;1.17;0.90;;;;;;;;;;5009213;28;20522;-70
2021/05/06 13:43:42;;;;;;;1.00;0.80;;;;;;;;;;5013540;28;20415;-70
2021/05/06 13:46:09;;;;;;;0.80;0.60;;;;;;;;;;5018908;28;20455;-70
2021/05/06 13:48:35;;;;;;;0.97;0.70;;;;;;;;;;5018931;28;20419;-70
2021/05/06 13:51:01;;;;;;;3.03;1.40;;;;;;;;;;5018730;28;20436;-72
2021/05/06 13:53:27;;;;;;;0.80;0.70;;;;;;;;;;5019702;28;20470;-70
2021/05/06 13:55:53;;;;;;;0.80;0.60;;;;;;;;;;5020009;28;20890;-71
2021/05/06 13:58:19;;;;;;;1.77;0.70;;;;;;;;;;5023548;28;20422;-71
2021/05/06 14:00:45;;;;;;;0.70;0.50;;;;;;;;;;5019283;28;20442;-71
2021/05/06 14:03:11;;;;;;;1.00;0.60;;;;;;;;;;5015886;28;20394;-70
2021/05/06 14:05:37;;;;;;;0.70;0.50;;;;;;;;;;5019166;28;20374;-71
2021/05/06 14:08:03;;;;;;;1.20;0.90;;;;;;;;;;5013026;28;20443;-70
2021/05/06 14:10:29;;;;;;;0.90;0.80;;;;;;;;;;5012323;28;20403;-71
2021/05/06 14:12:55;;;;;;;0.70;0.50;;;;;;;;;;5011074;28;20398;-71
2021/05/06 14:15:21;;;;;;;0.80;0.60;;;;;;;;;;5010696;28;21085;-71
2021/05/06 14:17:47;;;;;;;1.57;0.53;;;;;;;;;;5016632;28;20387;-71
2021/05/06 14:20:13;;;;;;;2.00;0.70;;;;;;;;;;5012460;28;20449;-71
2021/05/06 14:22:39;;;;;;;0.80;0.50;;;;;;;;;;5012503;28;20403;-70
2021/05/06 14:25:05;;;;;;;0.80;0.60;;;;;;;;;;5016536;28;20421;-70
2021/05/06 14:27:33;;;;;;;0.77;0.50;;;;;;;;;;5016638;28;20399;-71
2021/05/06 14:29:59;;;;;;;1.07;0.80;;;;;;;;;;5015842;28;20505;-72
2021/05/06 14:32:25;;;;;;;2.43;0.80;;;;;;;;;;5022657;28;20923;-71
2021/05/06 14:34:54;;;;;;;0.70;0.47;;;;;;;;;;5017126;28;20375;-71
2021/05/06 14:37:24;;;;;;;1.23;0.63;;;;;;;;;;5023115;28;20874;-76
2021/05/06 14:39:52;;;;;;;0.70;0.50;;;;;;;;;;5021730;28;20442;-73
2021/05/06 14:42:19;;;;;;;0.80;0.70;;;;;;;;;;5015745;28;20475;-71
2021/05/06 14:44:45;;;;;;;0.80;0.60;;;;;;;;;;5016490;28;20390;-72
2021/05/06 14:47:12;;;;;;;1.00;0.70;;;;;;;;;;5016515;28;20406;-73
2021/05/06 14:49:38;;;;;;;2.07;0.67;;;;;;;;;;5016430;28;20399;-72
2021/05/06 14:52:04;;;;;;;0.90;0.60;;;;;;;;;;5016049;28;20418;-70
2021/05/06 14:54:30;;;;;;;0.80;0.50;;;;;;;;;;5017901;28;20408;-72
2021/05/06 14:56:56;;;;;;;2.83;0.67;;;;;;;;;;5013765;28;20431;-72
2021/05/06 14:59:22;;;;;;;0.90;0.73;;;;;;;;;;5014683;28;20817;-71
2021/05/06 15:01:48;;;;;;;0.97;0.60;;;;;;;;;;5013611;28;20433;-72
2021/05/06 15:04:14;;;;;;;0.93;0.60;;;;;;;;;;5013512;28;20476;-71
2021/05/06 15:06:40;;;;;;;1.50;1.10;;;;;;;;;;5014259;28;20391;-72
2021/05/06 15:09:06;;;;;;;0.90;0.80;;;;;;;;;;5017249;28;20462;-71
2021/05/06 15:11:38;;;;;;;1.27;0.80;;;;;;;;;;5016519;28;20448;-72
2021/05/06 15:14:06;;;;;;;0.90;0.63;;;;;;;;;;5019163;28;20390;-71
2021/05/06 15:16:32;;;;;;;2.07;0.97;;;;;;;;;;5018282;28;20410;-72
2021/05/06 15:18:57;;;;;;;0.70;0.50;;;;;;;;;;5020201;28;20411;-73
2021/05/06 15:21:23;;;;;;;0.80;0.57;;;;;;;;;;5020792;28;20450;-74
2021/05/06 15:23:49;;;;;;;1.00;0.87;;;;;;;;;;5013574;28;20387;-72
2021/05/06 15:26:16;;;;;;;0.70;0.50;;;;;;;;;;5021107;28;20904;-71
2021/05/06 15:28:41;;;;;;;0.77;0.60;;;;;;;;;;5014125;28;20462;-72
2021/05/06 15:31:07;;;;;;;2.27;1.60;;;;;;;;;;5027764;28;20466;-73
2021/05/06 15:33:33;;;;;;;0.80;0.70;;;;;;;;;;5020294;28;20415;-73
2021/05/06 15:35:59;;;;;;;6.53;1.93;;;;;;;;;;5017299;28;20446;-71
2021/05/06 15:38:25;;;;;;;2.30;1.13;;;;;;;;;;5016940;28;20415;-72
2021/05/06 15:40:54;;;;;;;1.93;0.77;;;;;;;;;;5019917;28;21061;-71
2021/05/06 15:43:21;;;;;;;0.70;0.50;;;;;;;;;;5019782;28;20376;-74
2021/05/06 15:45:47;;;;;;;1.33;0.93;;;;;;;;;;5019676;28;20455;-71
2021/05/06 15:48:14;;;;;;;0.70;0.50;;;;;;;;;;5019605;28;20411;-71
2021/05/06 15:50:41;;;;;;;0.70;0.60;;;;;;;;;;5017007;28;20435;-71
2021/05/06 15:53:07;;;;;;;0.70;0.53;;;;;;;;;;5017430;28;20387;-71
2021/05/06 15:55:33;;;;;;;6.83;0.90;;;;;;;;;;5010407;28;20395;-72
2021/05/06 15:58:03;;;;;;;0.93;0.80;;;;;;;;;;5023492;28;20397;-72
2021/05/06 16:00:31;;;;;;;6.63;1.20;;;;;;;;;;5021240;28;20450;-70
2021/05/06 16:03:01;;;;;;;0.70;0.50;;;;;;;;;;5021004;28;20422;-72
2021/05/06 16:05:29;;;;;;;0.97;0.87;;;;;;;;;;5012897;28;20387;-72
2021/05/06 16:07:55;;;;;;;0.70;0.50;;;;;;;;;;5015490;28;20391;-71
2021/05/06 16:10:21;;;;;;;6.53;0.70;;;;;;;;;;5027386;28;20434;-71
2021/05/06 16:12:50;;;;;;;0.70;0.60;;;;;;;;;;5016102;28;20435;-71
2021/05/06 16:15:16;;;;;;;3.00;2.80;;;;;;;;;;5014794;28;20886;-73
2021/05/06 16:17:42;;;;;;;0.70;0.50;;;;;;;;;;5016029;28;20407;-72
2021/05/06 16:20:15;;;;;;;0.70;0.50;;;;;;;;;;5014155;28;20412;-71
2021/05/06 16:22:42;;;;;;;0.80;0.50;;;;;;;;;;5014495;28;20417;-72
2021/05/06 16:25:08;;;;;;;1.00;0.90;;;;;;;;;;5005656;28;20775;-72
2021/05/06 16:27:36;;;;;;;0.70;0.50;;;;;;;;;;5016513;28;20417;-73
2021/05/06 16:30:02;;;;;;;1.00;0.90;;;;;;;;;;5017038;28;20471;-71
2021/05/06 16:32:28;;;;;;;0.80;0.70;;;;;;;;;;5018311;28;20445;-71
2021/05/06 16:34:54;;;;;;;2.13;0.83;;;;;;;;;;5023146;28;20376;-72
2021/05/06 16:44:54;;;;;;;0.70;0.50;;;;;;;;;;5019379;28;20390;-72
2021/05/06 16:47:20;;;;;;;0.80;0.60;;;;;;;;;;5020301;28;20927;-71
2021/05/06 16:49:46;;;;;;;2.20;0.73;;;;;;;;;;5019869;28;20429;-71
2021/05/06 16:52:12;;;;;;;1.10;0.93;;;;;;;;;;5017979;28;20435;-72
2021/05/06 16:54:38;;;;;;;0.70;0.60;;;;;;;;;;5019634;28;20416;-72
2021/05/06 16:57:05;;;;;;;1.00;0.60;;;;;;;;;;5033245;28;20414;-71
2021/05/06 16:59:31;;;;;;;0.80;0.60;;;;;;;;;;5025630;28;20448;-70
2021/05/06 17:01:56;;;;;;;0.70;0.60;;;;;;;;;;5012795;28;20822;-72
2021/05/06 17:04:22;;;;;;;1.47;1.33;;;;;;;;;;5013152;28;20847;-71
2021/05/06 17:06:51;;;;;;;0.80;0.50;;;;;;;;;;5021642;28;20433;-72
2021/05/06 17:09:17;;;;;;;1.57;0.67;;;;;;;;;;5012181;28;20415;-71
2021/05/06 17:11:43;;;;;;;0.70;0.50;;;;;;;;;;5021223;28;20419;-70
2021/05/06 17:14:09;;;;;;;1.10;0.50;;;;;;;;;;5021751;28;20415;-71
2021/05/06 17:16:35;;;;;;;2.60;0.63;;;;;;;;;;5023142;28;20434;-71
2021/05/06 17:19:01;;;;;;;0.90;0.60;;;;;;;;;;5021677;28;20442;-71
2021/05/06 17:21:27;;;;;;;0.80;0.70;;;;;;;;;;5018860;28;20514;-70
2021/05/06 17:23:53;;;;;;;1.73;0.87;;;;;;;;;;5024322;28;20717;-71
2021/05/06 17:26:20;;;;;;;0.80;0.60;;;;;;;;;;5021023;28;20418;-72
2021/05/06 17:28:46;;;;;;;0.87;0.80;;;;;;;;;;5023023;28;20451;-71
2021/05/06 17:31:12;;;;;;;0.70;0.50;;;;;;;;;;5020265;28;20931;-71
2021/05/06 17:33:41;;;;;;;1.33;1.23;;;;;;;;;;5022684;28;20393;-72
2021/05/06 17:36:08;;;;;;;0.90;0.50;;;;;;;;;;5020156;28;20412;-69
2021/05/06 17:38:37;;;;;;;2.70;0.70;;;;;;;;;;5020141;28;20501;-71
2021/05/06 17:41:03;;;;;;;1.03;0.70;;;;;;;;;;5022566;28;20459;-70
2021/05/06 17:43:30;;;;;;;0.70;0.50;;;;;;;;;;5020905;28;20416;-72
2021/05/06 17:45:56;;;;;;;0.70;0.40;;;;;;;;;;5020904;28;20407;-72
2021/05/06 17:48:22;;;;;;;2.67;0.97;;;;;;;;;;5021396;28;20431;-71
2021/05/06 17:50:48;;;;;;;1.00;0.60;;;;;;;;;;5018043;28;20443;-70
2021/05/06 17:53:14;;;;;;;2.93;0.73;;;;;;;;;;5003641;28;20443;-72
2021/05/06 17:55:40;;;;;;;0.70;0.50;;;;;;;;;;5008326;28;20412;-72
2021/05/06 17:58:06;;;;;;;16.97;1.37;;;;;;;;;;5013441;28;20897;-75
2021/05/06 18:00:32;;;;;;;1.33;1.17;;;;;;;;;;5018300;28;20908;-73
2021/05/06 18:02:58;;;;;;;0.70;0.50;;;;;;;;;;5008007;28;20781;-71
2021/05/06 18:05:26;;;;;;;0.93;0.60;;;;;;;;;;5009222;28;20409;-74
2021/05/06 18:07:53;;;;;;;0.70;0.50;;;;;;;;;;5009358;28;20412;-70
2021/05/06 18:10:25;;;;;;;0.93;0.83;;;;;;;;;;5013023;28;20455;-71